Terminal Aerodrome Forecast
Issued by NWS

Home | Current Version | Previous Version | Text Only | Print | Product List | Glossary On
Versions: 1 2 3 4 5 6 7 8 9 10 11 12 13 14 15 16 17 18 19 20 21 22 23
000
FTUS41 KRLX 210200 AAA
TAFCKB
TAF AMD
KCKB 210246Z 2103/2124 19004KT P6SM SCT250
     FM210800 19004KT 6SM BR SCT040
     FM211200 20005KT P6SM BKN025
     FM211400 22009KT 6SM SHRA BR VCTS BKN020CB
     FM212200 24009KT P6SM BKN040=

USA.gov is the U.S. government's official web portal to all federal, state and local government web resources and services.